Dades de l'estació automàtica Certascan (2.398 m)
Resum diari
17:00 TU| Temperatura mitjana | 1.6 °C | |
|---|---|---|
| Temperatura màxima | 2.8 °C | 10:19 TU |
| Temperatura mínima | 0.3 °C | 7:17 TU |
| Humitat relativa mitjana | 96% | |
| Precipitació acumulada | 9.2 mm | |
| Gruix de neu màxim | 92 cm | |
| Ratxa màxima del vent (6 m) | 40.0 km/h - 268º | 13:00 TU |
| Irradiació solar global | 8.0 MJ/m2 | |
El tram horari està expressat en Temps Universal (TU). Cal sumar una hora en horari d'hivern i dues en horari d'estiu per passar a l'hora oficial.
Certascan (2.398 m)
| Municipi | Lladorre |
|---|---|
| Comarca | Pallars Sobirà |
| Altitud | 2398 m |
| Data alta | 11.11.2000 |
| Estat actual | Operativa |
| Període TU |
TM °C |
TX °C |
TN °C |
HRM % |
PPT mm |
GN cm |
VVM (6 m) km/h |
DVM (6 m) graus |
VVX (6 m) km/h |
RS W/m2 |
|---|---|---|---|---|---|---|---|---|---|---|
| 00:00 - 00:30 | 1.6 | 1.7 | 1.5 | 98 | 0.0 | 92 | 11.9 | 167 | 29.5 | 0 |
| 00:30 - 01:00 | 1.5 | 1.5 | 1.5 | 98 | 0.0 | 92 | 13.3 | 126 | 27.4 | 0 |
| 01:00 - 01:30 | 1.5 | 1.5 | 1.5 | 98 | 0.0 | 92 | 12.6 | 152 | 25.6 | 0 |
| 01:30 - 02:00 | 1.3 | 1.5 | 1.1 | 98 | 0.0 | 92 | 11.2 | 168 | 25.9 | 0 |
| 02:00 - 02:30 | 1.1 | 1.2 | 1.1 | 98 | 0.0 | 92 | 6.8 | 219 | 17.3 | 0 |
| 02:30 - 03:00 | 1.1 | 1.2 | 1.1 | 98 | 0.0 | 92 | 7.9 | 168 | 14.8 | 0 |
| 03:00 - 03:30 | 1.2 | 1.2 | 1.1 | 98 | 0.0 | 92 | 4.3 | 170 | 10.4 | 0 |
| 03:30 - 04:00 | 1.2 | 1.3 | 1.2 | 98 | 0.0 | 92 | 4.7 | 184 | 14.8 | 0 |
| 04:00 - 04:30 | 1.2 | 1.3 | 1.2 | 98 | 0.0 | 92 | 4.3 | 141 | 13.7 | 0 |
| 04:30 - 05:00 | 1.2 | 1.2 | 1.1 | 98 | 0.0 | 92 | 0.7 | 90 | 5.0 | 1 |
| 05:00 - 05:30 | 1.2 | 1.2 | 1.0 | 98 | 0.4 | 92 | 1.1 | 218 | 8.3 | 10 |
| 05:30 - 06:00 | 1.0 | 1.1 | 0.8 | 98 | 0.5 | 92 | 4.3 | 197 | 13.3 | 32 |
| 06:00 - 06:30 | 0.6 | 0.8 | 0.5 | 98 | 1.2 | 92 | 6.8 | 199 | 21.2 | 42 |
| 06:30 - 07:00 | 0.5 | 0.9 | 0.4 | 98 | 0.6 | 92 | 3.2 | 227 | 11.2 | 125 |
| 07:00 - 07:30 | 0.6 | 0.9 | 0.3 | 98 | 0.0 | 92 | 7.2 | 243 | 22.3 | 140 |
| 07:30 - 08:00 | 0.9 | 1.2 | 0.8 | 97 | 0.0 | 91 | 6.8 | 151 | 24.8 | 232 |
| 08:00 - 08:30 | 1.3 | 1.4 | 1.2 | 96 | 0.0 | 91 | 9.4 | 206 | 24.5 | 231 |
| 08:30 - 09:00 | 1.5 | 1.7 | 1.3 | 95 | 0.0 | 91 | 11.2 | 226 | 27.4 | 237 |
| 09:00 - 09:30 | 1.7 | 1.9 | 1.4 | 95 | 0.0 | 91 | 10.1 | 263 | 22.0 | 215 |
| 09:30 - 10:00 | 2.1 | 2.2 | 1.9 | 93 | 0.0 | 91 | 6.8 | 270 | 16.9 | 277 |
| 10:00 - 10:30 | 2.6 | 2.8 | 2.1 | 89 | 0.0 | 89 | 7.6 | 257 | 20.9 | 485 |
| 10:30 - 11:00 | 2.5 | 2.6 | 2.5 | 91 | 0.0 | 90 | 8.3 | 244 | 20.5 | 236 |
| 11:00 - 11:30 | 2.3 | 2.6 | 1.0 | 95 | 2.1 | 89 | 7.6 | 222 | 24.1 | 124 |
| 11:30 - 12:00 | 2.1 | 2.8 | 0.9 | 93 | 0.3 | 90 | 13.7 | 226 | 30.2 | 397 |
| 12:00 - 12:30 | 2.4 | 2.5 | 2.1 | 93 | 0.5 | 90 | 14.0 | 223 | 29.2 | 116 |
| 12:30 - 13:00 | 2.1 | 2.5 | 2.0 | 96 | 1.5 | 90 | 14.4 | 222 | 30.6 | 138 |
| 13:00 - 13:30 | 2.1 | 2.2 | 1.9 | 95 | 0.3 | 90 | 16.2 | 246 | 40.0 | 167 |
| 13:30 - 14:00 | 2.2 | 2.4 | 2.1 | 95 | 0.0 | 90 | 11.5 | 233 | 26.3 | 123 |
| 14:00 - 14:30 | 2.5 | 2.7 | 2.3 | 90 | 0.1 | 90 | 11.9 | 222 | 28.1 | 215 |
| 14:30 - 15:00 | 2.2 | 2.5 | 1.9 | 94 | 0.9 | 89 | 8.3 | 209 | 21.2 | 179 |
| 15:00 - 15:30 | 1.8 | 2.0 | 1.6 | 96 | 0.1 | 90 | 7.9 | 242 | 17.3 | 249 |
| 15:30 - 16:00 | 1.6 | 1.9 | 1.4 | 97 | 0.1 | 90 | 8.3 | 248 | 21.6 | 193 |
| 16:00 - 16:30 | 1.8 | 1.9 | 1.6 | 96 | 0.0 | 90 | 6.5 | 222 | 15.5 | 111 |
| 16:30 - 17:00 | 1.4 | 1.7 | 1.2 | 97 | 0.6 | 91 | 5.4 | 260 | 11.9 | 81 |
| 17:00 - 17:30 | 1.5 | 1.7 | 1.4 | 96 | 0.0 | 90 | 4.3 | 26 | 11.2 | 108 |
Les dades en taronja només han passat un control de qualitat automàtic. Resta pendent la seva validació definitiva.